createdAt,value
2023-01-10T00:00:48.801Z,2.05
2023-01-10T00:03:15.854Z,6.45
2023-01-10T00:05:42.515Z,4.85
2023-01-10T00:08:09.320Z,2.35
2023-01-10T00:10:36.063Z,4.15
2023-01-10T00:13:21.547Z,3.45
2023-01-10T00:15:48.588Z,8.02
2023-01-10T00:18:15.431Z,3.95
2023-01-10T00:20:44.527Z,3.35
2023-01-10T00:23:11.718Z,4.85
2023-01-10T00:25:38.676Z,3.95
2023-01-10T00:28:08.390Z,2.53
2023-01-10T00:30:35.229Z,5.93
2023-01-10T00:33:02.043Z,4.07
2023-01-10T00:35:28.749Z,4.07
2023-01-10T00:38:01.307Z,6.70
2023-01-10T00:40:27.994Z,3.60
2023-01-10T00:43:13.333Z,2.65
2023-01-10T00:45:40.044Z,4.43
2023-01-10T00:48:06.738Z,4.85
2023-01-10T00:50:33.448Z,4.35
2023-01-10T00:53:00.198Z,3.55
2023-01-10T00:55:27.009Z,3.08
2023-01-10T00:57:53.725Z,5.13
2023-01-10T01:00:20.409Z,3.08
2023-01-10T01:02:48.210Z,5.57
2023-01-10T01:05:14.873Z,2.33
2023-01-10T01:07:41.607Z,2.45
2023-01-10T01:10:27.045Z,4.10
2023-01-10T01:12:58.444Z,6.57
2023-01-10T01:15:26.483Z,5.18
2023-01-10T01:17:53.564Z,3.30
2023-01-10T01:20:21.578Z,2.97
2023-01-10T01:22:48.475Z,5.10
2023-01-10T01:25:15.628Z,4.88
2023-01-10T01:27:42.399Z,3.13
2023-01-10T01:30:10.810Z,3.58
2023-01-10T01:32:37.535Z,6.15
2023-01-10T01:35:05.703Z,3.88
2023-01-10T01:37:32.432Z,5.90
2023-01-10T01:39:59.760Z,4.45
2023-01-10T01:42:34.322Z,3.95
2023-01-10T01:45:23.012Z,2.35
2023-01-10T01:47:56.910Z,4.70
2023-01-10T01:50:29.181Z,2.63
2023-01-10T01:52:57.954Z,4.30
2023-01-10T01:55:25.875Z,2.63
2023-01-10T01:57:54.423Z,5.93
2023-01-10T02:00:21.142Z,3.70
2023-01-10T02:03:02.211Z,4.03
2023-01-10T02:05:31.644Z,4.22
2023-01-10T02:07:59.186Z,5.38
2023-01-10T02:10:41.160Z,5.15
2023-01-10T02:13:09.477Z,2.08
2023-01-10T02:15:36.214Z,3.10
2023-01-10T02:18:03.967Z,4.15
2023-01-10T02:20:57.249Z,5.63
2023-01-10T02:23:44.208Z,3.10
2023-01-10T02:26:32.469Z,2.30
2023-01-10T02:29:08.610Z,3.22
2023-01-10T02:32:03.242Z,3.15
2023-01-10T02:34:55.950Z,3.28
2023-01-10T02:37:37.269Z,3.80
2023-01-10T02:40:22.877Z,3.70
2023-01-10T02:43:00.107Z,4.25
2023-01-10T02:45:36.747Z,7.20
2023-01-10T02:48:03.635Z,3.95
2023-01-10T02:50:30.304Z,2.60
2023-01-10T02:53:03.714Z,2.67
2023-01-10T02:55:45.049Z,3.28
2023-01-10T02:58:23.714Z,6.85
2023-01-10T03:01:03.202Z,2.50
2023-01-10T03:03:33.466Z,1.52
2023-01-10T03:06:18.122Z,3.58
2023-01-10T03:09:05.213Z,3.83
2023-01-10T03:11:43.404Z,1.85
2023-01-10T03:14:17.105Z,2.85
2023-01-10T03:16:47.766Z,3.05
2023-01-10T03:19:18.001Z,3.38
2023-01-10T03:21:44.736Z,4.55
2023-01-10T03:24:20.123Z,3.92
2023-01-10T03:26:56.185Z,2.92
2023-01-10T03:29:28.745Z,2.25
2023-01-10T03:31:58.903Z,2.97
2023-01-10T03:34:26.370Z,7.68
2023-01-10T03:37:01.207Z,2.28
2023-01-10T03:39:40.235Z,2.33
2023-01-10T03:42:22.128Z,2.10
2023-01-10T03:44:58.005Z,2.38
2023-01-10T03:47:41.598Z,2.42
2023-01-10T03:50:20.430Z,3.45
2023-01-10T03:52:47.408Z,3.05
2023-01-10T03:55:23.298Z,2.47
2023-01-10T03:57:50.049Z,4.25
2023-01-10T04:00:17.251Z,3.92
2023-01-10T04:02:44.366Z,3.45
2023-01-10T04:05:11.570Z,3.65
2023-01-10T04:07:38.375Z,2.08
2023-01-10T04:10:06.444Z,4.78
2023-01-10T04:12:33.097Z,3.58
2023-01-10T04:15:01.337Z,3.22
2023-01-10T04:17:28.080Z,5.72
2023-01-10T04:19:55.049Z,18.80
2023-01-10T04:22:21.836Z,11.55
2023-01-10T04:24:51.164Z,15.93
2023-01-10T04:27:18.421Z,23.48
2023-01-10T04:29:45.111Z,27.60
2023-01-10T04:32:11.979Z,32.00
2023-01-10T04:34:38.732Z,29.77
2023-01-10T04:37:05.475Z,8.57
2023-01-10T04:39:32.148Z,15.82
2023-01-10T04:41:58.807Z,22.00
2023-01-10T04:44:25.511Z,10.80
2023-01-10T04:46:52.185Z,9.02
2023-01-10T04:49:18.846Z,8.15
2023-01-10T04:51:45.569Z,7.75
2023-01-10T04:54:12.254Z,4.95
2023-01-10T04:56:39.912Z,5.85
2023-01-10T04:59:06.681Z,8.15
2023-01-10T05:01:35.306Z,3.55
2023-01-10T05:04:03.243Z,4.72
2023-01-10T05:06:30.045Z,3.08
2023-01-10T05:08:57.313Z,3.22
2023-01-10T05:11:24.121Z,7.93
2023-01-10T05:13:51.217Z,4.78
2023-01-10T05:16:18.454Z,5.13
2023-01-10T05:18:45.209Z,9.43
2023-01-10T05:21:13.238Z,9.15
2023-01-10T05:23:40.458Z,6.07
2023-01-10T05:26:13.436Z,5.30
2023-01-10T05:28:40.901Z,11.02
2023-01-10T05:31:09.164Z,17.20
2023-01-10T05:33:35.984Z,12.10
2023-01-10T05:36:10.070Z,9.27
2023-01-10T05:38:36.812Z,13.90
2023-01-10T05:41:03.568Z,7.55
2023-01-10T05:43:30.293Z,7.97
2023-01-10T05:45:57.162Z,8.30
2023-01-10T05:48:23.931Z,3.90
2023-01-10T05:50:51.593Z,7.22
2023-01-10T05:53:19.138Z,7.05
2023-01-10T05:55:56.750Z,10.57
2023-01-10T05:58:23.446Z,6.50
2023-01-10T06:00:50.520Z,10.93
2023-01-10T06:03:17.291Z,7.63
2023-01-10T06:05:43.945Z,8.50
2023-01-10T06:08:10.624Z,4.20
2023-01-10T06:10:37.429Z,7.05
2023-01-10T06:13:05.155Z,5.78
2023-01-10T06:15:34.024Z,9.60
2023-01-10T06:18:00.731Z,8.52
2023-01-10T06:20:27.714Z,9.27
2023-01-10T06:22:54.432Z,12.43
2023-01-10T06:25:21.370Z,16.27
2023-01-10T06:27:47.977Z,13.05
2023-01-10T06:30:14.834Z,8.45
2023-01-10T06:32:42.422Z,10.75
2023-01-10T06:35:09.460Z,7.40
2023-01-10T06:37:36.242Z,9.82
2023-01-10T06:40:03.696Z,9.82
2023-01-10T06:42:30.388Z,14.98
2023-01-10T06:44:57.103Z,14.90
2023-01-10T06:47:23.745Z,9.18
2023-01-10T06:49:50.455Z,13.68
2023-01-10T06:52:17.109Z,15.18
2023-01-10T06:54:43.829Z,18.52
2023-01-10T06:57:10.629Z,11.05
2023-01-10T06:59:37.325Z,12.57
2023-01-10T07:02:04.138Z,9.52
2023-01-10T07:04:30.906Z,14.88
2023-01-10T07:06:57.580Z,16.20
2023-01-10T07:09:24.242Z,15.85
2023-01-10T07:11:50.968Z,13.60
2023-01-10T07:14:17.698Z,8.73
2023-01-10T07:16:44.365Z,9.07
2023-01-10T07:19:13.387Z,16.88
2023-01-10T07:21:40.359Z,18.60
2023-01-10T07:24:07.724Z,15.45
2023-01-10T07:26:34.461Z,11.32
2023-01-10T07:29:01.149Z,8.68
2023-01-10T07:31:27.943Z,15.30
2023-01-10T07:33:54.699Z,12.68
2023-01-10T07:36:21.853Z,13.57
2023-01-10T07:38:48.500Z,12.25
2023-01-10T07:41:15.182Z,17.13
2023-01-10T07:43:41.848Z,16.00
2023-01-10T07:46:09.653Z,11.25
2023-01-10T07:48:36.866Z,12.50
2023-01-10T07:51:04.752Z,18.25
2023-01-10T07:53:31.806Z,18.27
2023-01-10T07:55:59.730Z,12.65
2023-01-10T07:58:26.574Z,14.35
2023-01-10T08:01:00.705Z,18.30
2023-01-10T08:03:27.590Z,9.48
2023-01-10T08:06:02.462Z,12.88
2023-01-10T08:08:29.635Z,8.25
2023-01-10T08:10:56.652Z,10.15
2023-01-10T08:13:23.582Z,14.38
2023-01-10T08:15:51.748Z,15.57
2023-01-10T08:18:20.641Z,16.15
2023-01-10T08:20:49.549Z,13.57
2023-01-10T08:23:16.917Z,15.55
2023-01-10T08:25:43.964Z,12.02
2023-01-10T08:28:10.737Z,21.08
2023-01-10T08:30:38.059Z,16.50
2023-01-10T08:33:06.685Z,18.55
2023-01-10T08:35:43.324Z,17.80
2023-01-10T08:38:11.392Z,13.20
2023-01-10T08:40:38.128Z,16.80
2023-01-10T08:43:07.291Z,16.83
2023-01-10T08:45:34.569Z,12.88
2023-01-10T08:48:01.869Z,14.07
2023-01-10T08:50:28.650Z,13.23
2023-01-10T08:52:58.210Z,13.50
2023-01-10T08:55:25.489Z,15.82
2023-01-10T08:57:52.212Z,15.90
2023-01-10T09:00:19.618Z,7.15
2023-01-10T09:02:46.414Z,15.95
2023-01-10T09:05:26.336Z,14.48
2023-01-10T09:07:58.439Z,10.85
2023-01-10T09:10:25.132Z,15.10
2023-01-10T09:12:54.691Z,15.93
2023-01-10T09:15:40.164Z,15.88
2023-01-10T09:18:07.888Z,19.77
2023-01-10T09:20:37.016Z,7.47
2023-01-10T09:23:12.608Z,18.15
2023-01-10T09:25:39.311Z,10.30
2023-01-10T09:28:06.243Z,13.10
2023-01-10T09:30:32.998Z,9.65
2023-01-10T09:32:59.883Z,11.85
2023-01-10T09:35:28.076Z,10.30
2023-01-10T09:38:00.934Z,10.85
2023-01-10T09:40:46.524Z,11.98
2023-01-10T09:43:34.116Z,5.63
2023-01-10T09:46:05.385Z,13.00
2023-01-10T09:48:43.464Z,15.07
2023-01-10T09:51:19.994Z,13.07
2023-01-10T09:53:46.924Z,11.82
2023-01-10T09:56:14.588Z,16.35
2023-01-10T09:58:42.249Z,14.18
2023-01-10T10:01:16.351Z,5.28
2023-01-10T10:03:56.059Z,6.97
2023-01-10T10:06:23.575Z,11.93
2023-01-10T10:08:50.880Z,13.95
2023-01-10T10:11:26.460Z,13.52
2023-01-10T10:14:06.221Z,18.02
2023-01-10T10:16:35.786Z,12.57
2023-01-10T10:19:40.268Z,13.45
2023-01-10T10:22:27.509Z,10.98
2023-01-10T10:25:06.177Z,8.38
2023-01-10T10:27:41.427Z,9.98
2023-01-10T10:30:32.734Z,11.82
2023-01-10T10:33:05.454Z,11.18
2023-01-10T10:35:35.183Z,14.20
2023-01-10T10:38:06.198Z,16.80
2023-01-10T10:40:37.842Z,16.02
2023-01-10T10:43:27.808Z,15.65
2023-01-10T10:45:55.654Z,20.90
2023-01-10T10:48:27.807Z,19.33
2023-01-10T10:51:00.455Z,19.02
2023-01-10T10:53:27.337Z,18.65
2023-01-10T10:55:54.266Z,13.35
2023-01-10T10:58:20.919Z,14.60
2023-01-10T11:00:48.007Z,22.98
2023-01-10T11:03:52.708Z,16.58
2023-01-10T11:06:20.132Z,13.23
2023-01-10T11:08:48.639Z,14.02
2023-01-10T11:11:20.174Z,10.32
2023-01-10T11:13:51.245Z,22.05
2023-01-10T11:16:36.651Z,14.73
2023-01-10T11:19:26.417Z,19.58
2023-01-10T11:22:06.473Z,20.58
2023-01-10T11:24:36.431Z,18.55
2023-01-10T11:27:14.406Z,17.80
2023-01-10T11:29:48.437Z,15.00
2023-01-10T11:32:18.135Z,14.10
2023-01-10T11:34:55.031Z,15.63
2023-01-10T11:37:28.998Z,18.10
2023-01-10T11:40:19.084Z,17.23
2023-01-10T11:42:46.767Z,13.60
2023-01-10T11:45:19.501Z,23.80
2023-01-10T11:47:49.139Z,15.30
2023-01-10T11:50:21.670Z,20.80
2023-01-10T11:52:49.106Z,18.40
2023-01-10T11:55:21.319Z,16.38
2023-01-10T11:58:05.618Z,13.52
2023-01-10T12:00:39.830Z,15.48
2023-01-10T12:03:32.660Z,16.05
2023-01-10T12:06:02.470Z,17.60
2023-01-10T12:08:34.483Z,14.68
2023-01-10T12:11:24.901Z,16.08
2023-01-10T12:13:53.833Z,17.25
2023-01-10T12:16:27.289Z,19.02
2023-01-10T12:18:57.177Z,14.80
2023-01-10T12:21:28.928Z,16.98
2023-01-10T12:23:58.620Z,13.75
2023-01-10T12:26:30.138Z,12.55
2023-01-10T12:28:58.907Z,8.38
2023-01-10T12:31:25.999Z,16.20
2023-01-10T12:34:07.076Z,13.90
2023-01-10T12:36:48.587Z,17.83
2023-01-10T12:39:23.029Z,19.10
2023-01-10T12:42:20.611Z,12.73
2023-01-10T12:44:52.620Z,17.55
2023-01-10T12:47:38.881Z,13.10
2023-01-10T12:50:15.532Z,12.57
2023-01-10T12:52:47.405Z,13.32
2023-01-10T12:55:21.722Z,15.65
2023-01-10T12:57:53.749Z,16.55
2023-01-10T13:00:24.270Z,14.85
2023-01-10T13:02:53.674Z,16.00
2023-01-10T13:05:22.820Z,15.48
2023-01-10T13:07:51.083Z,12.55
2023-01-10T13:10:21.666Z,15.40
2023-01-10T13:13:10.086Z,12.27
2023-01-10T13:15:40.660Z,10.82
2023-01-10T13:18:19.538Z,10.88
2023-01-10T13:20:46.277Z,14.05
2023-01-10T13:23:30.290Z,14.73
2023-01-10T13:26:00.208Z,10.45
2023-01-10T13:28:28.537Z,16.67
2023-01-10T13:31:04.754Z,12.32
2023-01-10T13:33:40.331Z,15.85
2023-01-10T13:36:10.579Z,15.48
2023-01-10T13:38:51.851Z,15.85
2023-01-10T13:41:37.645Z,7.68
2023-01-10T13:44:14.815Z,9.02
2023-01-10T13:46:43.018Z,14.20
2023-01-10T13:49:09.726Z,13.73
2023-01-10T13:51:37.617Z,13.25
2023-01-10T13:54:24.552Z,13.68
2023-01-10T13:56:51.199Z,14.48
2023-01-10T13:59:42.240Z,11.77
2023-01-10T14:02:31.766Z,16.15
2023-01-10T14:05:10.988Z,6.95
2023-01-10T14:07:49.036Z,13.30
2023-01-10T14:10:27.748Z,9.02
2023-01-10T14:12:56.539Z,9.40
2023-01-10T14:15:47.573Z,18.52
2023-01-10T14:18:26.895Z,11.90
2023-01-10T14:21:04.978Z,13.18
2023-01-10T14:23:41.048Z,12.27
2023-01-10T14:26:16.176Z,11.82
2023-01-10T14:28:42.898Z,14.15
2023-01-10T14:31:25.389Z,13.90
2023-01-10T14:33:52.864Z,12.23
2023-01-10T14:36:32.456Z,10.25
2023-01-10T14:39:01.988Z,12.07
2023-01-10T14:41:41.377Z,13.95
2023-01-10T14:44:22.681Z,12.50
2023-01-10T14:46:51.489Z,14.38
2023-01-10T14:49:28.421Z,18.17
2023-01-10T14:52:10.786Z,9.40
2023-01-10T14:54:37.530Z,11.27
2023-01-10T14:57:04.197Z,16.58
2023-01-10T14:59:34.300Z,16.48
2023-01-10T15:02:04.364Z,14.10
2023-01-10T15:04:33.250Z,11.55
2023-01-10T15:07:02.928Z,16.80
2023-01-10T15:09:31.547Z,16.60
2023-01-10T15:12:01.329Z,14.23
2023-01-10T15:14:28.756Z,13.55
2023-01-10T15:17:02.101Z,11.68
2023-01-10T15:19:34.686Z,15.15
2023-01-10T15:22:01.782Z,16.83
2023-01-10T15:24:36.541Z,10.45
2023-01-10T15:27:05.449Z,12.77
2023-01-10T15:29:32.841Z,27.42
2023-01-10T15:32:29.670Z,22.20
2023-01-10T15:34:57.334Z,14.70
2023-01-10T15:37:36.701Z,18.58
2023-01-10T15:40:05.948Z,12.10
2023-01-10T15:42:32.592Z,18.25
2023-01-10T15:45:27.801Z,15.75
2023-01-10T15:48:02.842Z,33.63
2023-01-10T15:50:32.808Z,31.45
2023-01-10T15:53:02.111Z,36.20
2023-01-10T15:55:52.367Z,33.50
2023-01-10T15:58:19.862Z,27.27
2023-01-10T16:00:47.796Z,23.17
2023-01-10T16:03:31.925Z,12.88
2023-01-10T16:05:59.903Z,14.80
2023-01-10T16:08:34.890Z,13.32
2023-01-10T16:11:03.939Z,18.60
2023-01-10T16:13:35.427Z,15.02
2023-01-10T16:16:08.190Z,17.83
2023-01-10T16:18:34.846Z,13.07
2023-01-10T16:21:02.775Z,8.43
2023-01-10T16:23:32.937Z,16.08
2023-01-10T16:26:01.692Z,15.27
2023-01-10T16:28:30.848Z,13.82
2023-01-10T16:30:57.476Z,11.07
2023-01-10T16:33:27.563Z,9.88
2023-01-10T16:35:56.015Z,9.07
2023-01-10T16:38:23.243Z,8.68
2023-01-10T16:40:53.470Z,9.52
2023-01-10T16:43:25.566Z,15.73
2023-01-10T16:45:59.708Z,14.57
2023-01-10T16:48:28.335Z,13.85
2023-01-10T16:51:02.845Z,14.05
2023-01-10T16:53:29.631Z,25.77
2023-01-10T16:55:56.467Z,21.85
2023-01-10T16:58:23.220Z,16.67
2023-01-10T17:00:51.521Z,9.50
2023-01-10T17:03:21.364Z,7.22
2023-01-10T17:05:48.543Z,5.93
2023-01-10T17:08:22.784Z,10.38
2023-01-10T17:10:53.919Z,13.05
2023-01-10T17:13:27.152Z,11.20
2023-01-10T17:18:20.589Z,16.60
2023-01-10T17:20:47.314Z,14.80
2023-01-10T17:23:15.620Z,11.98
2023-01-10T17:25:42.691Z,14.65
2023-01-10T17:28:11.488Z,10.40
2023-01-10T17:30:41.686Z,10.32
2023-01-10T17:33:12.006Z,10.82
2023-01-10T17:35:42.879Z,9.55
2023-01-10T17:38:11.752Z,12.90
2023-01-10T17:40:45.888Z,10.05
2023-01-10T17:43:13.717Z,10.38
2023-01-10T17:45:47.711Z,6.03
2023-01-10T17:48:18.349Z,11.02
2023-01-10T17:50:46.742Z,11.35
2023-01-10T17:53:14.654Z,8.85
2023-01-10T17:55:45.386Z,7.63
2023-01-10T17:58:12.512Z,9.73
2023-01-10T18:00:39.600Z,8.95
2023-01-10T18:03:06.639Z,9.70
2023-01-10T18:05:35.147Z,6.35
2023-01-10T18:08:02.695Z,10.82
2023-01-10T18:10:29.720Z,8.23
2023-01-10T18:12:56.509Z,11.02
2023-01-10T18:15:24.127Z,11.77
2023-01-10T18:17:50.990Z,19.42
2023-01-10T18:20:17.863Z,10.50
2023-01-10T18:23:05.013Z,9.88
2023-01-10T18:25:31.810Z,15.13
2023-01-10T18:28:00.090Z,9.73
2023-01-10T18:30:26.948Z,12.93
2023-01-10T18:32:54.400Z,10.27
2023-01-10T18:35:22.162Z,19.05
2023-01-10T18:37:48.950Z,14.30
2023-01-10T18:40:15.634Z,16.85
2023-01-10T18:42:43.213Z,13.05
2023-01-10T18:45:10.044Z,10.43
2023-01-10T18:47:36.870Z,12.45
2023-01-10T18:50:04.912Z,11.85
2023-01-10T18:52:31.663Z,5.70
2023-01-10T18:54:59.473Z,7.88
2023-01-10T18:57:28.542Z,13.95
2023-01-10T18:59:55.340Z,11.30
2023-01-10T19:02:26.425Z,6.90
2023-01-10T19:04:53.173Z,14.73
2023-01-10T19:07:20.013Z,17.02
2023-01-10T19:09:46.822Z,14.85
2023-01-10T19:12:13.566Z,13.50
2023-01-10T19:14:40.328Z,19.02
2023-01-10T19:17:07.275Z,19.77
2023-01-10T19:19:34.011Z,15.90
2023-01-10T19:22:00.727Z,19.30
2023-01-10T19:24:29.619Z,27.02
2023-01-10T19:26:56.689Z,24.38
2023-01-10T19:29:24.051Z,22.73
2023-01-10T19:31:51.000Z,10.90
2023-01-10T19:34:17.861Z,12.82
2023-01-10T19:36:45.499Z,11.35
2023-01-10T19:39:12.719Z,13.98
2023-01-10T19:41:40.040Z,11.70
2023-01-10T19:44:10.837Z,17.88
2023-01-10T19:46:39.042Z,14.13
2023-01-10T19:49:09.639Z,13.02
2023-01-10T19:51:38.375Z,10.80
2023-01-10T19:54:06.101Z,14.95
2023-01-10T19:56:33.724Z,13.25
2023-01-10T19:59:00.508Z,19.85
2023-01-10T20:01:29.345Z,13.55
2023-01-10T20:03:58.416Z,9.45
2023-01-10T20:06:26.818Z,10.13
2023-01-10T20:08:54.415Z,14.32
2023-01-10T20:11:22.681Z,16.45
2023-01-10T20:13:49.716Z,15.57
2023-01-10T20:16:20.676Z,15.05
2023-01-10T20:18:48.205Z,14.93
2023-01-10T20:21:17.542Z,18.55
2023-01-10T20:23:44.900Z,11.50
2023-01-10T20:26:14.611Z,13.73
2023-01-10T20:28:42.565Z,14.13
2023-01-10T20:31:12.758Z,13.15
2023-01-10T20:33:39.445Z,15.95
2023-01-10T20:36:08.237Z,17.45
2023-01-10T20:38:36.089Z,14.85
2023-01-10T20:41:18.239Z,13.13
2023-01-10T20:43:45.420Z,9.77
2023-01-10T20:46:15.465Z,13.00
2023-01-10T20:48:42.577Z,13.52
2023-01-10T20:51:15.867Z,11.00
2023-01-10T20:56:13.206Z,12.52
2023-01-10T20:58:40.228Z,14.18
2023-01-10T21:01:07.869Z,9.32
2023-01-10T21:03:34.711Z,23.27
2023-01-10T21:06:01.575Z,7.82
2023-01-10T21:08:31.730Z,9.60
2023-01-10T21:10:58.568Z,6.88
2023-01-10T21:13:26.015Z,13.40
2023-01-10T21:15:55.497Z,14.93
2023-01-10T21:18:25.011Z,12.27
2023-01-10T21:20:57.606Z,6.65
2023-01-10T21:23:26.108Z,8.55
2023-01-10T21:25:53.633Z,15.05
2023-01-10T21:28:20.975Z,16.63
2023-01-10T21:30:50.934Z,15.27
2023-01-10T21:33:17.577Z,16.40
2023-01-10T21:35:55.078Z,17.85
2023-01-10T21:38:21.740Z,12.93
2023-01-10T21:40:48.466Z,15.07
2023-01-10T21:43:15.240Z,16.05
2023-01-10T21:45:42.011Z,14.65
2023-01-10T21:48:08.711Z,11.52
2023-01-10T21:50:35.495Z,13.30
2023-01-10T21:53:03.124Z,12.40
2023-01-10T21:55:29.839Z,6.82
2023-01-10T21:57:56.749Z,9.20
2023-01-10T22:00:23.466Z,8.40
2023-01-10T22:02:50.198Z,8.07
2023-01-10T22:05:16.946Z,7.03
2023-01-10T22:07:44.848Z,7.60
2023-01-10T22:10:12.088Z,14.70
2023-01-10T22:12:38.779Z,7.05
2023-01-10T22:15:06.030Z,13.02
2023-01-10T22:17:32.758Z,8.63
2023-01-10T22:19:59.471Z,6.18
2023-01-10T22:22:26.301Z,11.43
2023-01-10T22:24:53.097Z,8.02
2023-01-10T22:27:19.960Z,10.57
2023-01-10T22:29:46.755Z,9.93
2023-01-10T22:32:13.419Z,9.95
2023-01-10T22:34:40.154Z,12.93
2023-01-10T22:37:06.909Z,9.05
2023-01-10T22:39:33.625Z,11.50
2023-01-10T22:42:00.355Z,11.75
2023-01-10T22:44:27.100Z,7.10
2023-01-10T22:46:55.041Z,11.50
2023-01-10T22:49:22.311Z,8.45
2023-01-10T22:51:49.401Z,10.68
2023-01-10T22:54:16.108Z,8.20
2023-01-10T22:56:44.392Z,6.00
2023-01-10T22:59:11.763Z,7.43
2023-01-10T23:01:38.980Z,7.90
2023-01-10T23:04:06.000Z,10.00
2023-01-10T23:06:32.823Z,7.30
2023-01-10T23:09:00.421Z,6.13
2023-01-10T23:11:27.057Z,9.00
2023-01-10T23:13:53.859Z,6.25
2023-01-10T23:16:28.207Z,8.80
2023-01-10T23:18:56.585Z,8.07
2023-01-10T23:21:23.867Z,6.35
2023-01-10T23:23:50.735Z,12.27
2023-01-10T23:26:17.640Z,7.05
2023-01-10T23:28:47.457Z,7.80
2023-01-10T23:31:19.488Z,6.10
2023-01-10T23:33:46.556Z,11.13
2023-01-10T23:36:13.597Z,6.03
2023-01-10T23:38:40.278Z,10.30
2023-01-10T23:41:07.228Z,7.68
2023-01-10T23:43:33.933Z,12.18
2023-01-10T23:46:02.229Z,11.20
2023-01-10T23:48:29.553Z,12.48
2023-01-10T23:50:57.086Z,11.57
2023-01-10T23:53:23.809Z,14.02
2023-01-10T23:55:50.666Z,13.73
2023-01-10T23:58:17.437Z,16.05
